QTR74Y EGCC-OTHH
Flight info
| Callsign | QTR74Y |
|---|---|
| Flight time | N/A |
| Altitude | 37000 |
| Route | DESIG L603 DOLAS DCT NAVPI DCT NOLRU DCT DODEN DCT NEGIX DCT DINKU M867 XERUM DCT BAVAX DCT RADIZ DCT NIPEL DCT ELTIB DCT GLOMY DCT INLOT DCT PINDO DCT PAXIS Y707 OBRAN L321 REXUM M872 FYM/N0487F390 M872 WEJ L604 GAS G662 KSA N687 KINIB Z511 GISRA L681 ORLEK |
| Aircraft | A35K/H-SDE2E3GHIJ3J4J5LM1ORWXY/LB1D1 |
Departure
| Time | 2026-05-06 15:17 |
|---|---|
| Airport | Manchester Airport (EGCC) |
Arrival
| Time | N/A |
|---|---|
| Airport | Hamad International Airport (OTHH) |
| Time | Latitude | Longitude | Altitude | Speed | Heading |
|---|---|---|---|---|---|
| 2026-05-06 14:29 | 53.36455 | -2.28648 | 237 ft | 0 kts | 224° |
| 2026-05-06 15:01 | 53.36454 | -2.28649 | 236 ft | 1 kts | 224° |
| 2026-05-06 15:01 | 53.36444 | -2.28675 | 259 ft | 4 kts | 246° |
| 2026-05-06 15:02 | 53.36448 | -2.28652 | 241 ft | 4 kts | 289° |
| 2026-05-06 15:02 | 53.36451 | -2.28653 | 241 ft | 4 kts | 313° |
| 2026-05-06 15:02 | 53.36441 | -2.28634 | 239 ft | 4 kts | 275° |
| 2026-05-06 15:02 | 53.36435 | -2.28634 | 236 ft | 4 kts | 224° |
| 2026-05-06 15:03 | 53.36453 | -2.28616 | 241 ft | 4 kts | 200° |
| 2026-05-06 15:03 | 53.36479 | -2.28603 | 240 ft | 5 kts | 191° |
| 2026-05-06 15:03 | 53.36500 | -2.28598 | 239 ft | 5 kts | 167° |
| 2026-05-06 15:03 | 53.36519 | -2.28612 | 239 ft | 6 kts | 137° |
| 2026-05-06 15:04 | 53.36537 | -2.28642 | 239 ft | 4 kts | 136° |
| 2026-05-06 15:04 | 53.36538 | -2.28643 | 239 ft | 4 kts | 136° |
| 2026-05-06 15:08 | 53.36536 | -2.28640 | 234 ft | 2 kts | 136° |
| 2026-05-06 15:09 | 53.36517 | -2.28609 | 238 ft | 6 kts | 136° |
| 2026-05-06 15:09 | 53.36481 | -2.28551 | 239 ft | 8 kts | 135° |
| 2026-05-06 15:09 | 53.36435 | -2.28474 | 236 ft | 10 kts | 135° |
| 2026-05-06 15:09 | 53.36381 | -2.28384 | 239 ft | 11 kts | 135° |
| 2026-05-06 15:10 | 53.36323 | -2.28287 | 242 ft | 11 kts | 134° |
| 2026-05-06 15:10 | 53.36275 | -2.28203 | 245 ft | 9 kts | 134° |
| 2026-05-06 15:10 | 53.36233 | -2.28129 | 247 ft | 10 kts | 134° |
| 2026-05-06 15:10 | 53.36178 | -2.28033 | 248 ft | 13 kts | 134° |
| 2026-05-06 15:11 | 53.36134 | -2.27960 | 248 ft | 14 kts | 135° |
| 2026-05-06 15:11 | 53.36053 | -2.27854 | 246 ft | 16 kts | 156° |
| 2026-05-06 15:11 | 53.35935 | -2.27843 | 244 ft | 18 kts | 184° |
| 2026-05-06 15:11 | 53.35799 | -2.27867 | 239 ft | 21 kts | 186° |
| 2026-05-06 15:12 | 53.35657 | -2.27891 | 240 ft | 15 kts | 185° |
| 2026-05-06 15:12 | 53.35554 | -2.27910 | 242 ft | 15 kts | 187° |
| 2026-05-06 15:12 | 53.35452 | -2.27949 | 242 ft | 16 kts | 208° |
| 2026-05-06 15:12 | 53.35358 | -2.28078 | 239 ft | 19 kts | 223° |
| 2026-05-06 15:13 | 53.35257 | -2.28250 | 238 ft | 23 kts | 228° |
| 2026-05-06 15:13 | 53.35151 | -2.28460 | 232 ft | 24 kts | 231° |
| 2026-05-06 15:13 | 53.35043 | -2.28680 | 232 ft | 25 kts | 230° |
| 2026-05-06 15:13 | 53.34924 | -2.28908 | 229 ft | 27 kts | 226° |
| 2026-05-06 15:14 | 53.34805 | -2.29118 | 227 ft | 21 kts | 228° |
| 2026-05-06 15:14 | 53.34714 | -2.29280 | 222 ft | 19 kts | 218° |
| 2026-05-06 15:14 | 53.34615 | -2.29337 | 220 ft | 11 kts | 177° |
| 2026-05-06 15:14 | 53.34557 | -2.29290 | 228 ft | 8 kts | 133° |
| 2026-05-06 15:15 | 53.34550 | -2.29208 | 227 ft | 7 kts | 64° |
| 2026-05-06 15:15 | 53.34577 | -2.29143 | 225 ft | 8 kts | 52° |
| 2026-05-06 15:15 | 53.34583 | -2.29131 | 225 ft | 0 kts | 52° |
| 2026-05-06 15:16 | 53.34615 | -2.29063 | 225 ft | 26 kts | 51° |
| 2026-05-06 15:16 | 53.34875 | -2.28524 | 238 ft | 91 kts | 51° |
| 2026-05-06 15:16 | 53.35403 | -2.27434 | 249 ft | 148 kts | 51° |
| 2026-05-06 15:16 | 53.36091 | -2.26064 | 835 ft | 149 kts | 50° |
| 2026-05-06 15:17 | 53.36803 | -2.24745 | 1508 ft | 158 kts | 49° |
| 2026-05-06 15:17 | 53.37553 | -2.23373 | 1997 ft | 165 kts | 49° |
| 2026-05-06 15:17 | 53.38342 | -2.21832 | 2319 ft | 185 kts | 51° |
| 2026-05-06 15:17 | 53.39177 | -2.20006 | 2585 ft | 207 kts | 55° |
| 2026-05-06 15:18 | 53.40054 | -2.17952 | 2929 ft | 226 kts | 54° |
| 2026-05-06 15:18 | 53.41034 | -2.15729 | 3292 ft | 245 kts | 53° |
| 2026-05-06 15:18 | 53.42081 | -2.13434 | 3976 ft | 250 kts | 52° |
| 2026-05-06 15:18 | 53.43158 | -2.11114 | 4704 ft | 255 kts | 52° |
| 2026-05-06 15:19 | 53.44259 | -2.08747 | 5409 ft | 258 kts | 52° |
| 2026-05-06 15:19 | 53.45357 | -2.06395 | 6170 ft | 260 kts | 51° |
| 2026-05-06 15:19 | 53.46485 | -2.03984 | 6894 ft | 264 kts | 51° |
| 2026-05-06 15:19 | 53.47632 | -2.01529 | 7600 ft | 269 kts | 51° |
| 2026-05-06 15:20 | 53.48801 | -1.99033 | 8328 ft | 274 kts | 50° |
| 2026-05-06 15:20 | 53.49983 | -1.96496 | 9091 ft | 278 kts | 51° |
| 2026-05-06 15:20 | 53.51083 | -1.93773 | 9831 ft | 284 kts | 56° |
| 2026-05-06 15:20 | 53.52025 | -1.90794 | 10372 ft | 297 kts | 68° |
| 2026-05-06 15:21 | 53.52334 | -1.87252 | 10679 ft | 319 kts | 94° |
| 2026-05-06 15:21 | 53.51980 | -1.83520 | 11026 ft | 336 kts | 102° |
| 2026-05-06 15:21 | 53.51352 | -1.79634 | 11373 ft | 353 kts | 106° |
| 2026-05-06 15:21 | 53.50580 | -1.75605 | 11725 ft | 369 kts | 108° |
| 2026-05-06 15:22 | 53.49746 | -1.71424 | 12089 ft | 384 kts | 108° |
| 2026-05-06 15:22 | 53.48901 | -1.67104 | 12666 ft | 391 kts | 107° |
| 2026-05-06 15:22 | 53.48073 | -1.62723 | 13337 ft | 396 kts | 107° |
| 2026-05-06 15:22 | 53.47257 | -1.58278 | 13974 ft | 401 kts | 106° |
| 2026-05-06 15:23 | 53.46452 | -1.53828 | 14556 ft | 405 kts | 106° |
| 2026-05-06 15:23 | 53.45635 | -1.49269 | 15176 ft | 409 kts | 106° |
| 2026-05-06 15:23 | 53.44813 | -1.44662 | 15790 ft | 413 kts | 106° |
| 2026-05-06 15:23 | 53.43983 | -1.40029 | 16396 ft | 417 kts | 106° |
| 2026-05-06 15:24 | 53.43142 | -1.35352 | 17013 ft | 421 kts | 107° |
| 2026-05-06 15:24 | 53.42288 | -1.30621 | 17626 ft | 425 kts | 107° |
| 2026-05-06 15:24 | 53.41426 | -1.25863 | 18258 ft | 429 kts | 107° |
| 2026-05-06 15:24 | 53.40563 | -1.21099 | 18821 ft | 433 kts | 107° |
| 2026-05-06 15:25 | 53.39684 | -1.16260 | 19390 ft | 436 kts | 107° |
| 2026-05-06 15:25 | 53.38789 | -1.11360 | 19965 ft | 440 kts | 107° |
| 2026-05-06 15:25 | 53.37885 | -1.06429 | 20557 ft | 444 kts | 107° |
| 2026-05-06 15:25 | 53.36972 | -1.01465 | 21135 ft | 447 kts | 107° |
| 2026-05-06 15:26 | 53.36062 | -0.96530 | 21693 ft | 451 kts | 107° |
| 2026-05-06 15:26 | 53.35129 | -0.91482 | 22267 ft | 455 kts | 108° |
| 2026-05-06 15:26 | 53.34189 | -0.86405 | 22841 ft | 458 kts | 108° |
| 2026-05-06 15:26 | 53.33238 | -0.81284 | 23404 ft | 462 kts | 108° |
| 2026-05-06 15:27 | 53.32277 | -0.76122 | 23900 ft | 466 kts | 108° |
| 2026-05-06 15:27 | 53.31305 | -0.70915 | 24375 ft | 469 kts | 108° |
| 2026-05-06 15:27 | 53.30326 | -0.65672 | 24858 ft | 473 kts | 108° |
| 2026-05-06 15:27 | 53.29355 | -0.60481 | 25311 ft | 476 kts | 108° |
| 2026-05-06 15:28 | 53.28359 | -0.55186 | 25797 ft | 479 kts | 108° |
| 2026-05-06 15:28 | 53.27350 | -0.49847 | 26260 ft | 482 kts | 109° |
| 2026-05-06 15:28 | 53.26332 | -0.44479 | 26721 ft | 485 kts | 109° |
| 2026-05-06 15:28 | 53.25309 | -0.39075 | 27168 ft | 489 kts | 109° |
| 2026-05-06 15:29 | 53.24276 | -0.33645 | 27625 ft | 492 kts | 109° |
| 2026-05-06 15:29 | 53.23244 | -0.28246 | 28066 ft | 495 kts | 109° |
| 2026-05-06 15:29 | 53.22195 | -0.22754 | 28480 ft | 498 kts | 109° |
| 2026-05-06 15:29 | 53.21134 | -0.17233 | 28899 ft | 501 kts | 109° |
| 2026-05-06 15:30 | 53.20065 | -0.11694 | 29303 ft | 504 kts | 109° |
| 2026-05-06 15:30 | 53.18982 | -0.06100 | 29682 ft | 507 kts | 109° |
| 2026-05-06 15:30 | 53.17893 | -0.00483 | 30131 ft | 508 kts | 110° |
| 2026-05-06 15:30 | 53.16802 | 0.05139 | 30597 ft | 507 kts | 110° |
| 2026-05-06 15:31 | 53.15715 | 0.10718 | 31081 ft | 506 kts | 110° |
| 2026-05-06 15:31 | 53.14627 | 0.16284 | 31496 ft | 505 kts | 110° |
| 2026-05-06 15:31 | 53.13537 | 0.21840 | 31928 ft | 504 kts | 110° |
| 2026-05-06 15:32 | 53.11371 | 0.32843 | 32775 ft | 502 kts | 110° |
| 2026-05-06 15:32 | 53.10279 | 0.38366 | 33185 ft | 501 kts | 110° |
| 2026-05-06 15:32 | 53.09188 | 0.43871 | 33571 ft | 500 kts | 110° |
| 2026-05-06 15:32 | 53.08093 | 0.49377 | 33951 ft | 499 kts | 110° |
| 2026-05-06 15:33 | 53.06999 | 0.54863 | 34270 ft | 499 kts | 110° |
| 2026-05-06 15:33 | 53.05908 | 0.60320 | 34557 ft | 498 kts | 110° |
| 2026-05-06 15:33 | 53.04824 | 0.65729 | 34821 ft | 498 kts | 110° |
| 2026-05-06 15:33 | 53.03724 | 0.71197 | 35098 ft | 498 kts | 110° |
| 2026-05-06 15:34 | 53.02623 | 0.76658 | 35339 ft | 498 kts | 110° |
| 2026-05-06 15:34 | 53.01520 | 0.82118 | 35573 ft | 498 kts | 110° |
| 2026-05-06 15:34 | 53.00411 | 0.87585 | 35814 ft | 499 kts | 110° |
| 2026-05-06 15:34 | 52.99299 | 0.93054 | 36034 ft | 499 kts | 110° |
| 2026-05-06 15:35 | 52.98185 | 0.98520 | 36249 ft | 499 kts | 110° |
| 2026-05-06 15:35 | 52.97074 | 1.03915 | 36461 ft | 499 kts | 111° |
| 2026-05-06 15:35 | 52.95889 | 1.09320 | 36665 ft | 499 kts | 112° |
| 2026-05-06 15:35 | 52.94652 | 1.14730 | 36867 ft | 500 kts | 112° |
| 2026-05-06 15:36 | 52.93400 | 1.20126 | 36985 ft | 502 kts | 112° |
| 2026-05-06 15:36 | 52.92139 | 1.25557 | 36994 ft | 506 kts | 112° |
| 2026-05-06 15:36 | 52.89636 | 1.36411 | 36990 ft | 506 kts | 112° |
| 2026-05-06 15:37 | 52.87136 | 1.47307 | 36991 ft | 505 kts | 112° |
| 2026-05-06 15:37 | 52.84634 | 1.58186 | 36986 ft | 505 kts | 112° |
| 2026-05-06 15:38 | 52.82139 | 1.68976 | 36982 ft | 504 kts | 112° |
| 2026-05-06 15:38 | 52.79620 | 1.79807 | 36983 ft | 504 kts | 112° |
| 2026-05-06 15:39 | 52.77095 | 1.90609 | 36976 ft | 503 kts | 112° |
| 2026-05-06 15:39 | 52.74576 | 2.01329 | 36976 ft | 503 kts | 112° |
| 2026-05-06 15:40 | 52.72037 | 2.12079 | 36979 ft | 502 kts | 112° |
| 2026-05-06 15:40 | 52.69488 | 2.22819 | 36973 ft | 502 kts | 113° |
| 2026-05-06 15:41 | 52.66929 | 2.33550 | 36975 ft | 502 kts | 113° |
| 2026-05-06 15:41 | 52.64374 | 2.44207 | 36968 ft | 502 kts | 113° |
| 2026-05-06 15:42 | 52.61800 | 2.54895 | 36964 ft | 502 kts | 113° |
| 2026-05-06 15:42 | 52.59214 | 2.65578 | 36960 ft | 502 kts | 113° |
| 2026-05-06 15:43 | 52.56631 | 2.76201 | 36966 ft | 502 kts | 113° |
| 2026-05-06 15:43 | 52.54014 | 2.86867 | 36952 ft | 502 kts | 114° |
| 2026-05-06 15:44 | 52.51068 | 2.97263 | 36950 ft | 501 kts | 118° |
| 2026-05-06 15:44 | 52.47963 | 3.07525 | 36945 ft | 501 kts | 118° |
| 2026-05-06 15:45 | 52.44895 | 3.17798 | 36943 ft | 501 kts | 117° |
| 2026-05-06 15:45 | 52.41880 | 3.28034 | 36948 ft | 501 kts | 117° |
| 2026-05-06 15:46 | 52.38845 | 3.38343 | 36927 ft | 501 kts | 117° |
| 2026-05-06 15:46 | 52.35803 | 3.48628 | 36923 ft | 501 kts | 117° |
| 2026-05-06 15:47 | 52.32777 | 3.58808 | 36929 ft | 500 kts | 118° |
| 2026-05-06 15:47 | 52.29720 | 3.69037 | 36926 ft | 500 kts | 118° |
| 2026-05-06 15:48 | 52.26651 | 3.79266 | 36919 ft | 500 kts | 118° |
| 2026-05-06 15:48 | 52.23597 | 3.89404 | 36914 ft | 500 kts | 118° |
| 2026-05-06 15:49 | 52.20516 | 3.99582 | 36910 ft | 499 kts | 118° |
| 2026-05-06 15:49 | 52.17430 | 4.09739 | 36906 ft | 499 kts | 118° |
| 2026-05-06 15:50 | 52.14339 | 4.19871 | 36907 ft | 498 kts | 118° |
| 2026-05-06 15:50 | 52.11308 | 4.29766 | 36905 ft | 497 kts | 118° |
| 2026-05-06 15:51 | 52.08213 | 4.39826 | 36908 ft | 497 kts | 118° |
| 2026-05-06 15:51 | 52.05110 | 4.49873 | 36911 ft | 496 kts | 118° |
| 2026-05-06 15:52 | 52.01995 | 4.59915 | 36908 ft | 496 kts | 118° |
| 2026-05-06 15:52 | 51.98903 | 4.69842 | 36905 ft | 496 kts | 118° |
| 2026-05-06 15:53 | 51.95777 | 4.79836 | 36901 ft | 496 kts | 118° |
| 2026-05-06 15:53 | 51.92647 | 4.89803 | 36894 ft | 496 kts | 119° |
| 2026-05-06 15:54 | 51.89507 | 4.99764 | 36888 ft | 496 kts | 119° |
| 2026-05-06 15:54 | 51.86378 | 5.09647 | 36887 ft | 496 kts | 119° |
| 2026-05-06 15:55 | 51.83217 | 5.19590 | 36890 ft | 496 kts | 119° |
| 2026-05-06 15:55 | 51.80051 | 5.29509 | 36882 ft | 496 kts | 119° |
| 2026-05-06 15:56 | 51.76893 | 5.39363 | 36884 ft | 496 kts | 119° |
| 2026-05-06 15:56 | 51.73705 | 5.49271 | 36883 ft | 496 kts | 120° |
| 2026-05-06 15:57 | 51.71053 | 5.57483 | 36881 ft | 496 kts | 120° |
| 2026-05-06 15:57 | 51.67333 | 5.68959 | 36881 ft | 496 kts | 120° |
| 2026-05-06 15:58 | 51.64648 | 5.77207 | 36883 ft | 496 kts | 120° |
| 2026-05-06 15:58 | 51.61458 | 5.86970 | 36885 ft | 495 kts | 120° |
| 2026-05-06 15:59 | 51.58235 | 5.96797 | 36884 ft | 495 kts | 120° |
| 2026-05-06 15:59 | 51.55011 | 6.06585 | 36883 ft | 495 kts | 120° |
| 2026-05-06 16:00 | 51.51796 | 6.16311 | 36881 ft | 495 kts | 120° |
| 2026-05-06 16:00 | 51.49610 | 6.22270 | 36889 ft | 492 kts | 127° |
| 2026-05-06 16:01 | 51.46304 | 6.29720 | 36879 ft | 491 kts | 128° |
| 2026-05-06 16:01 | 51.42219 | 6.38531 | 36858 ft | 491 kts | 129° |
| 2026-05-06 16:02 | 51.38145 | 6.47234 | 36857 ft | 491 kts | 129° |
| 2026-05-06 16:02 | 51.34052 | 6.55978 | 36857 ft | 491 kts | 129° |
| 2026-05-06 16:03 | 51.29954 | 6.64726 | 36857 ft | 490 kts | 129° |
| 2026-05-06 16:03 | 51.25861 | 6.73442 | 36857 ft | 490 kts | 129° |
| 2026-05-06 16:04 | 51.21755 | 6.82153 | 36856 ft | 490 kts | 129° |
| 2026-05-06 16:04 | 51.17676 | 6.90779 | 36856 ft | 490 kts | 129° |
| 2026-05-06 16:05 | 51.13568 | 6.99439 | 36847 ft | 490 kts | 130° |
| 2026-05-06 16:05 | 51.09443 | 7.08104 | 36846 ft | 490 kts | 130° |
| 2026-05-06 16:06 | 51.05312 | 7.16754 | 36849 ft | 490 kts | 130° |
| 2026-05-06 16:06 | 51.01178 | 7.25379 | 36850 ft | 490 kts | 130° |
| 2026-05-06 16:07 | 50.97071 | 7.33922 | 36846 ft | 490 kts | 130° |
| 2026-05-06 16:07 | 50.92922 | 7.42524 | 36845 ft | 490 kts | 130° |
| 2026-05-06 16:08 | 50.88773 | 7.51095 | 36835 ft | 489 kts | 130° |
| 2026-05-06 16:08 | 50.84651 | 7.59583 | 36824 ft | 488 kts | 130° |
| 2026-05-06 16:09 | 50.80500 | 7.68102 | 36803 ft | 487 kts | 130° |
| 2026-05-06 16:09 | 50.76361 | 7.76572 | 36800 ft | 486 kts | 130° |
| 2026-05-06 16:10 | 50.72216 | 7.85024 | 36801 ft | 486 kts | 131° |
| 2026-05-06 16:10 | 50.68069 | 7.93454 | 36798 ft | 485 kts | 131° |
| 2026-05-06 16:11 | 50.63943 | 8.01814 | 36799 ft | 485 kts | 131° |
| 2026-05-06 16:11 | 50.59813 | 8.10155 | 36796 ft | 485 kts | 131° |
| 2026-05-06 16:12 | 50.55627 | 8.18468 | 36798 ft | 484 kts | 132° |
| 2026-05-06 16:12 | 50.51393 | 8.26740 | 36795 ft | 484 kts | 132° |
| 2026-05-06 16:13 | 50.47169 | 8.34979 | 36790 ft | 483 kts | 132° |
| 2026-05-06 16:13 | 50.42984 | 8.43142 | 36778 ft | 483 kts | 132° |
| 2026-05-06 16:14 | 50.38775 | 8.51333 | 36778 ft | 482 kts | 132° |
| 2026-05-06 16:14 | 50.34860 | 8.58632 | 36776 ft | 480 kts | 136° |
| 2026-05-06 16:15 | 50.30719 | 8.65443 | 36782 ft | 479 kts | 137° |
| 2026-05-06 16:15 | 50.26078 | 8.72943 | 36788 ft | 479 kts | 137° |
| 2026-05-06 16:16 | 50.21502 | 8.80467 | 36789 ft | 479 kts | 136° |
| 2026-05-06 16:16 | 50.16930 | 8.88052 | 36788 ft | 479 kts | 136° |
| 2026-05-06 16:17 | 50.12381 | 8.95598 | 36790 ft | 479 kts | 136° |
| 2026-05-06 16:17 | 50.07806 | 9.03158 | 36785 ft | 480 kts | 136° |
| 2026-05-06 16:18 | 50.03222 | 9.10706 | 36780 ft | 480 kts | 136° |
| 2026-05-06 16:18 | 49.98628 | 9.18246 | 36785 ft | 480 kts | 136° |
| 2026-05-06 16:19 | 49.94048 | 9.25740 | 36788 ft | 480 kts | 137° |
| 2026-05-06 16:19 | 49.89443 | 9.33256 | 36795 ft | 480 kts | 137° |
| 2026-05-06 16:20 | 49.84830 | 9.40760 | 36767 ft | 480 kts | 137° |
| 2026-05-06 16:20 | 49.80238 | 9.48210 | 36787 ft | 480 kts | 137° |
| 2026-05-06 16:21 | 49.75611 | 9.55692 | 36785 ft | 480 kts | 137° |
| 2026-05-06 16:21 | 49.70984 | 9.63154 | 36788 ft | 480 kts | 137° |
| 2026-05-06 16:22 | 49.66352 | 9.70603 | 36790 ft | 480 kts | 137° |
| 2026-05-06 16:22 | 49.61722 | 9.78024 | 36796 ft | 479 kts | 138° |
| 2026-05-06 16:23 | 49.57117 | 9.85384 | 36798 ft | 479 kts | 138° |
| 2026-05-06 16:23 | 49.52492 | 9.92753 | 36802 ft | 479 kts | 138° |
| 2026-05-06 16:24 | 49.47856 | 10.00120 | 36796 ft | 478 kts | 138° |
| 2026-05-06 16:24 | 49.43211 | 10.07480 | 36802 ft | 478 kts | 138° |
| 2026-05-06 16:25 | 49.38600 | 10.14765 | 36801 ft | 478 kts | 138° |
| 2026-05-06 16:25 | 49.33970 | 10.22059 | 36783 ft | 477 kts | 138° |
| 2026-05-06 16:26 | 49.29330 | 10.29347 | 36789 ft | 477 kts | 138° |
| 2026-05-06 16:26 | 49.24637 | 10.36536 | 36797 ft | 474 kts | 143° |
| 2026-05-06 16:27 | 49.19295 | 10.42299 | 36800 ft | 468 kts | 152° |
| 2026-05-06 16:27 | 49.13748 | 10.47403 | 36796 ft | 467 kts | 153° |
| 2026-05-06 16:28 | 49.08138 | 10.52438 | 36805 ft | 467 kts | 153° |
| 2026-05-06 16:28 | 49.02531 | 10.57484 | 36799 ft | 467 kts | 153° |
| 2026-05-06 16:29 | 48.96956 | 10.62518 | 36803 ft | 467 kts | 153° |
| 2026-05-06 16:29 | 48.91359 | 10.67566 | 36800 ft | 467 kts | 153° |
| 2026-05-06 16:30 | 48.86708 | 10.71751 | 36799 ft | 467 kts | 153° |
| 2026-05-06 16:30 | 48.80446 | 10.78247 | 36780 ft | 474 kts | 141° |
| 2026-05-06 16:31 | 48.75831 | 10.85481 | 36774 ft | 478 kts | 137° |
| 2026-05-06 16:31 | 48.71373 | 10.93003 | 36754 ft | 480 kts | 136° |
| 2026-05-06 16:32 | 48.66944 | 11.00501 | 36753 ft | 480 kts | 136° |
| 2026-05-06 16:32 | 48.62457 | 11.08018 | 36745 ft | 481 kts | 137° |
| 2026-05-06 16:33 | 48.57956 | 11.15504 | 36748 ft | 481 kts | 137° |
| 2026-05-06 16:34 | 48.51203 | 11.26682 | 36763 ft | 482 kts | 137° |
| 2026-05-06 16:34 | 48.46674 | 11.34153 | 36772 ft | 482 kts | 137° |
| 2026-05-06 16:35 | 48.42171 | 11.41564 | 36776 ft | 483 kts | 137° |
| 2026-05-06 16:35 | 48.37627 | 11.49021 | 36779 ft | 483 kts | 137° |
| 2026-05-06 16:36 | 48.33069 | 11.56479 | 36769 ft | 484 kts | 137° |
| 2026-05-06 16:36 | 48.28508 | 11.63923 | 36776 ft | 484 kts | 137° |
| 2026-05-06 16:37 | 48.23887 | 11.71289 | 36773 ft | 482 kts | 141° |
| 2026-05-06 16:37 | 48.18959 | 11.78012 | 36780 ft | 480 kts | 143° |
| 2026-05-06 16:38 | 48.13938 | 11.84629 | 36781 ft | 481 kts | 143° |
| 2026-05-06 16:38 | 48.09792 | 11.90198 | 36779 ft | 482 kts | 142° |
| 2026-05-06 16:39 | 48.03987 | 11.98101 | 36775 ft | 483 kts | 142° |
| 2026-05-06 16:39 | 47.99024 | 12.04869 | 36766 ft | 483 kts | 142° |
| 2026-05-06 16:40 | 47.94075 | 12.11594 | 36761 ft | 483 kts | 142° |
| 2026-05-06 16:40 | 47.89098 | 12.18332 | 36746 ft | 483 kts | 142° |
| 2026-05-06 16:41 | 47.84101 | 12.25079 | 36731 ft | 484 kts | 142° |
| 2026-05-06 16:41 | 47.79135 | 12.31764 | 36723 ft | 484 kts | 142° |
| 2026-05-06 16:42 | 47.74134 | 12.38480 | 36713 ft | 484 kts | 142° |
| 2026-05-06 16:42 | 47.69119 | 12.45194 | 36701 ft | 484 kts | 142° |
| 2026-05-06 16:43 | 47.64140 | 12.51846 | 36703 ft | 485 kts | 142° |
| 2026-05-06 16:43 | 47.59955 | 12.57438 | 36702 ft | 486 kts | 142° |
| 2026-05-06 16:44 | 47.54958 | 12.64192 | 36707 ft | 487 kts | 142° |
| 2026-05-06 16:44 | 47.49933 | 12.70982 | 36710 ft | 488 kts | 142° |
| 2026-05-06 16:45 | 47.44098 | 12.78829 | 36717 ft | 487 kts | 142° |
| 2026-05-06 16:45 | 47.39933 | 12.84410 | 36729 ft | 487 kts | 142° |
| 2026-05-06 16:46 | 47.34908 | 12.91122 | 36741 ft | 487 kts | 142° |
| 2026-05-06 16:46 | 47.29873 | 12.97834 | 36759 ft | 488 kts | 142° |
| 2026-05-06 16:47 | 47.24860 | 13.04489 | 36772 ft | 488 kts | 141° |
| 2026-05-06 16:47 | 47.19798 | 13.11190 | 36783 ft | 489 kts | 142° |
| 2026-05-06 16:48 | 47.14726 | 13.17895 | 36779 ft | 489 kts | 141° |
| 2026-05-06 16:48 | 47.09652 | 13.24594 | 36807 ft | 490 kts | 142° |
| 2026-05-06 16:49 | 47.04587 | 13.31252 | 36822 ft | 491 kts | 142° |
| 2026-05-06 16:49 | 46.99491 | 13.37933 | 36833 ft | 492 kts | 142° |
| 2026-05-06 16:50 | 46.94411 | 13.44574 | 36839 ft | 491 kts | 141° |
| 2026-05-06 16:50 | 46.89302 | 13.51241 | 36847 ft | 491 kts | 142° |
| 2026-05-06 16:51 | 46.84204 | 13.57871 | 36842 ft | 492 kts | 142° |
| 2026-05-06 16:51 | 46.79075 | 13.64525 | 36844 ft | 492 kts | 142° |
| 2026-05-06 16:52 | 46.73941 | 13.71168 | 36843 ft | 493 kts | 142° |
| 2026-05-06 16:52 | 46.68842 | 13.77749 | 36860 ft | 493 kts | 142° |
| 2026-05-06 16:53 | 46.63702 | 13.84365 | 36858 ft | 492 kts | 142° |
| 2026-05-06 16:53 | 46.58563 | 13.90960 | 36862 ft | 493 kts | 142° |
| 2026-05-06 16:54 | 46.53414 | 13.97550 | 36862 ft | 493 kts | 142° |
| 2026-05-06 16:54 | 46.48257 | 14.04137 | 36860 ft | 493 kts | 142° |
| 2026-05-06 16:55 | 46.43218 | 14.10811 | 36866 ft | 494 kts | 140° |
| 2026-05-06 16:55 | 46.38184 | 14.17633 | 36889 ft | 494 kts | 140° |
| 2026-05-06 16:56 | 46.33179 | 14.24372 | 36902 ft | 494 kts | 140° |
| 2026-05-06 16:56 | 46.28121 | 14.31122 | 36910 ft | 494 kts | 140° |
| 2026-05-06 16:57 | 46.23050 | 14.37859 | 36910 ft | 494 kts | 140° |
| 2026-05-06 16:57 | 46.17983 | 14.44573 | 36911 ft | 495 kts | 140° |
| 2026-05-06 16:58 | 46.12932 | 14.51249 | 36912 ft | 496 kts | 140° |
| 2026-05-06 16:58 | 46.07833 | 14.57972 | 36914 ft | 496 kts | 141° |
| 2026-05-06 16:59 | 46.02727 | 14.64687 | 36920 ft | 497 kts | 141° |
| 2026-05-06 16:59 | 45.97651 | 14.71343 | 36924 ft | 497 kts | 141° |
| 2026-05-06 17:00 | 45.92528 | 14.78045 | 36919 ft | 498 kts | 141° |
| 2026-05-06 17:00 | 45.87390 | 14.84749 | 36915 ft | 498 kts | 141° |
| 2026-05-06 17:01 | 45.82296 | 14.91379 | 36913 ft | 498 kts | 141° |
| 2026-05-06 17:01 | 45.77155 | 14.98053 | 36909 ft | 498 kts | 141° |
| 2026-05-06 17:02 | 45.71987 | 15.04744 | 36903 ft | 499 kts | 141° |
| 2026-05-06 17:02 | 45.66862 | 15.11362 | 36910 ft | 500 kts | 141° |
| 2026-05-06 17:03 | 45.61691 | 15.18022 | 36911 ft | 500 kts | 141° |
| 2026-05-06 17:03 | 45.56512 | 15.24673 | 36907 ft | 500 kts | 141° |
| 2026-05-06 17:04 | 45.51320 | 15.31326 | 36909 ft | 501 kts | 141° |
| 2026-05-06 17:04 | 45.46163 | 15.37917 | 36907 ft | 501 kts | 141° |
| 2026-05-06 17:05 | 45.40960 | 15.44550 | 36910 ft | 501 kts | 141° |
| 2026-05-06 17:05 | 45.35747 | 15.51178 | 36911 ft | 502 kts | 141° |
| 2026-05-06 17:06 | 45.30527 | 15.57798 | 36908 ft | 502 kts | 141° |
| 2026-05-06 17:06 | 45.25332 | 15.64371 | 36918 ft | 502 kts | 141° |
| 2026-05-06 17:07 | 45.20096 | 15.70977 | 36909 ft | 503 kts | 141° |
| 2026-05-06 17:07 | 45.14852 | 15.77574 | 36921 ft | 503 kts | 141° |
| 2026-05-06 17:08 | 45.09643 | 15.84112 | 36912 ft | 504 kts | 141° |
| 2026-05-06 17:08 | 45.04377 | 15.90706 | 36922 ft | 505 kts | 141° |
| 2026-05-06 17:09 | 44.99108 | 15.97287 | 36928 ft | 505 kts | 142° |
| 2026-05-06 17:09 | 44.93826 | 16.03865 | 36928 ft | 505 kts | 142° |
| 2026-05-06 17:10 | 44.88572 | 16.10393 | 36928 ft | 506 kts | 142° |
| 2026-05-06 17:10 | 44.83282 | 16.16949 | 36935 ft | 506 kts | 142° |
| 2026-05-06 17:11 | 44.77982 | 16.23503 | 36941 ft | 506 kts | 142° |
| 2026-05-06 17:11 | 44.72706 | 16.30008 | 36941 ft | 506 kts | 142° |
| 2026-05-06 17:12 | 44.67397 | 16.36536 | 36941 ft | 506 kts | 142° |
| 2026-05-06 17:12 | 44.62085 | 16.43053 | 36952 ft | 507 kts | 142° |
| 2026-05-06 17:13 | 44.56768 | 16.49560 | 36952 ft | 507 kts | 142° |
| 2026-05-06 17:13 | 44.51448 | 16.56054 | 36956 ft | 507 kts | 142° |
| 2026-05-06 17:14 | 44.46150 | 16.62504 | 36963 ft | 507 kts | 142° |
| 2026-05-06 17:14 | 44.40833 | 16.68962 | 36969 ft | 508 kts | 142° |
| 2026-05-06 17:15 | 44.35488 | 16.75438 | 36974 ft | 508 kts | 142° |
| 2026-05-06 17:15 | 44.30133 | 16.81912 | 36978 ft | 508 kts | 142° |
| 2026-05-06 17:16 | 44.24719 | 16.88276 | 36985 ft | 508 kts | 144° |
| 2026-05-06 17:16 | 44.19269 | 16.94505 | 36990 ft | 509 kts | 144° |
| 2026-05-06 17:17 | 44.13791 | 17.00767 | 36990 ft | 509 kts | 144° |
| 2026-05-06 17:17 | 44.08305 | 17.07056 | 37000 ft | 510 kts | 144° |
| 2026-05-06 17:18 | 44.02857 | 17.13298 | 37002 ft | 510 kts | 144° |
| 2026-05-06 17:18 | 43.97368 | 17.19571 | 37002 ft | 510 kts | 144° |
| 2026-05-06 17:19 | 43.91876 | 17.25833 | 37006 ft | 511 kts | 144° |
| 2026-05-06 17:19 | 43.86407 | 17.32053 | 37010 ft | 511 kts | 144° |
| 2026-05-06 17:20 | 43.80899 | 17.38301 | 37012 ft | 512 kts | 144° |
| 2026-05-06 17:20 | 43.75392 | 17.44534 | 37015 ft | 512 kts | 144° |
| 2026-05-06 17:21 | 43.69865 | 17.50773 | 37018 ft | 512 kts | 144° |
| 2026-05-06 17:21 | 43.64338 | 17.56993 | 37026 ft | 513 kts | 144° |
| 2026-05-06 17:22 | 43.58815 | 17.63199 | 37019 ft | 512 kts | 145° |
| 2026-05-06 17:22 | 43.53320 | 17.69390 | 37037 ft | 513 kts | 144° |
| 2026-05-06 17:23 | 43.47876 | 17.75768 | 37039 ft | 513 kts | 143° |
| 2026-05-06 17:23 | 43.42440 | 17.82175 | 37042 ft | 514 kts | 143° |
| 2026-05-06 17:24 | 43.37017 | 17.88515 | 37049 ft | 514 kts | 143° |
| 2026-05-06 17:24 | 43.31537 | 17.94879 | 37045 ft | 515 kts | 143° |
| 2026-05-06 17:25 | 43.26053 | 18.01226 | 37047 ft | 515 kts | 143° |
| 2026-05-06 17:25 | 43.20568 | 18.07561 | 37040 ft | 515 kts | 143° |
| 2026-05-06 17:26 | 43.15100 | 18.13861 | 37039 ft | 516 kts | 143° |
| 2026-05-06 17:26 | 43.09603 | 18.20180 | 37039 ft | 516 kts | 143° |
| 2026-05-06 17:27 | 43.04097 | 18.26494 | 37040 ft | 516 kts | 143° |
| 2026-05-06 17:27 | 42.98587 | 18.32798 | 37046 ft | 516 kts | 143° |
| 2026-05-06 17:28 | 42.93113 | 18.39050 | 37045 ft | 516 kts | 143° |
| 2026-05-06 17:28 | 42.87598 | 18.45329 | 37049 ft | 515 kts | 144° |
| 2026-05-06 17:29 | 42.82173 | 18.51498 | 37052 ft | 508 kts | 144° |
| 2026-05-06 17:29 | 42.76728 | 18.57662 | 37055 ft | 507 kts | 144° |
| 2026-05-06 17:30 | 42.71319 | 18.63770 | 37055 ft | 507 kts | 144° |
| 2026-05-06 17:30 | 42.65879 | 18.69903 | 37069 ft | 508 kts | 144° |
| 2026-05-06 17:31 | 42.60436 | 18.76028 | 37071 ft | 508 kts | 144° |
| 2026-05-06 17:31 | 42.54984 | 18.82149 | 37074 ft | 509 kts | 144° |
| 2026-05-06 17:32 | 42.49548 | 18.88235 | 37072 ft | 509 kts | 144° |